sensor_id;sensor_type;location;lat;lon;timestamp;temperature;humidity
152;DHT22;68;48.792;9.164;2022-08-06T00:02:10;20.60;82.40
152;DHT22;68;48.792;9.164;2022-08-06T00:04:37;20.70;79.00
152;DHT22;68;48.792;9.164;2022-08-06T00:07:04;20.70;82.50
152;DHT22;68;48.792;9.164;2022-08-06T00:09:31;20.50;81.60
152;DHT22;68;48.792;9.164;2022-08-06T00:11:59;20.50;82.80
152;DHT22;68;48.792;9.164;2022-08-06T00:14:26;20.50;81.00
152;DHT22;68;48.792;9.164;2022-08-06T00:16:55;20.50;82.00
152;DHT22;68;48.792;9.164;2022-08-06T00:19:21;20.60;82.10
152;DHT22;68;48.792;9.164;2022-08-06T00:21:49;20.60;80.00
152;DHT22;68;48.792;9.164;2022-08-06T00:24:16;20.80;81.70
152;DHT22;68;48.792;9.164;2022-08-06T00:26:42;20.60;82.70
152;DHT22;68;48.792;9.164;2022-08-06T00:29:10;20.50;80.10
152;DHT22;68;48.792;9.164;2022-08-06T00:31:37;20.40;80.30
152;DHT22;68;48.792;9.164;2022-08-06T00:34:05;20.60;78.70
152;DHT22;68;48.792;9.164;2022-08-06T00:36:34;20.70;78.00
152;DHT22;68;48.792;9.164;2022-08-06T00:39:03;20.80;80.40
152;DHT22;68;48.792;9.164;2022-08-06T00:41:31;20.70;80.50
152;DHT22;68;48.792;9.164;2022-08-06T00:43:58;20.60;76.90
152;DHT22;68;48.792;9.164;2022-08-06T00:46:26;20.50;76.20
152;DHT22;68;48.792;9.164;2022-08-06T00:48:53;20.60;76.80
152;DHT22;68;48.792;9.164;2022-08-06T00:51:22;20.70;75.10
152;DHT22;68;48.792;9.164;2022-08-06T00:53:49;20.70;74.60
152;DHT22;68;48.792;9.164;2022-08-06T00:56:16;20.70;74.30
152;DHT22;68;48.792;9.164;2022-08-06T00:58:42;20.60;73.80
152;DHT22;68;48.792;9.164;2022-08-06T01:01:10;20.50;73.80
152;DHT22;68;48.792;9.164;2022-08-06T01:03:37;20.40;77.10
152;DHT22;68;48.792;9.164;2022-08-06T01:06:04;20.20;74.00
152;DHT22;68;48.792;9.164;2022-08-06T01:08:33;20.10;74.00
152;DHT22;68;48.792;9.164;2022-08-06T01:10:59;20.30;75.10
152;DHT22;68;48.792;9.164;2022-08-06T01:13:26;20.30;73.80
152;DHT22;68;48.792;9.164;2022-08-06T01:16:03;20.40;74.50
152;DHT22;68;48.792;9.164;2022-08-06T01:18:38;20.40;74.30
152;DHT22;68;48.792;9.164;2022-08-06T01:21:13;20.40;74.70
152;DHT22;68;48.792;9.164;2022-08-06T01:24:02;20.40;73.80
152;DHT22;68;48.792;9.164;2022-08-06T01:26:40;20.40;73.30
152;DHT22;68;48.792;9.164;2022-08-06T01:29:16;20.40;72.80
152;DHT22;68;48.792;9.164;2022-08-06T01:31:48;20.30;73.70
152;DHT22;68;48.792;9.164;2022-08-06T01:34:21;20.30;73.20
152;DHT22;68;48.792;9.164;2022-08-06T01:36:51;20.10;73.20
152;DHT22;68;48.792;9.164;2022-08-06T01:39:21;20.20;73.10
152;DHT22;68;48.792;9.164;2022-08-06T01:41:52;20.40;72.60
152;DHT22;68;48.792;9.164;2022-08-06T01:44:23;20.60;72.10
152;DHT22;68;48.792;9.164;2022-08-06T01:46:55;20.60;71.30
152;DHT22;68;48.792;9.164;2022-08-06T01:49:25;20.60;73.50
152;DHT22;68;48.792;9.164;2022-08-06T01:51:55;20.20;71.80
152;DHT22;68;48.792;9.164;2022-08-06T01:54:24;20.20;72.00
152;DHT22;68;48.792;9.164;2022-08-06T01:56:54;20.20;72.30
152;DHT22;68;48.792;9.164;2022-08-06T01:59:28;20.20;72.00
152;DHT22;68;48.792;9.164;2022-08-06T02:01:58;20.20;71.70
152;DHT22;68;48.792;9.164;2022-08-06T02:04:28;20.20;71.70
152;DHT22;68;48.792;9.164;2022-08-06T02:06:56;20.10;71.30
152;DHT22;68;48.792;9.164;2022-08-06T02:09:26;20.20;72.00
152;DHT22;68;48.792;9.164;2022-08-06T02:11:56;20.10;73.20
152;DHT22;68;48.792;9.164;2022-08-06T02:14:26;19.80;72.30
152;DHT22;68;48.792;9.164;2022-08-06T02:16:55;19.70;73.20
152;DHT22;68;48.792;9.164;2022-08-06T02:19:26;19.70;73.40
152;DHT22;68;48.792;9.164;2022-08-06T02:21:56;19.80;73.60
152;DHT22;68;48.792;9.164;2022-08-06T02:24:25;19.90;72.80
152;DHT22;68;48.792;9.164;2022-08-06T02:26:54;19.90;73.20
152;DHT22;68;48.792;9.164;2022-08-06T02:29:24;19.70;73.00
152;DHT22;68;48.792;9.164;2022-08-06T02:31:53;19.80;73.00
152;DHT22;68;48.792;9.164;2022-08-06T02:34:20;19.80;73.10
152;DHT22;68;48.792;9.164;2022-08-06T02:36:55;20.00;72.80
152;DHT22;68;48.792;9.164;2022-08-06T02:39:24;20.00;72.70
152;DHT22;68;48.792;9.164;2022-08-06T02:42:00;19.80;72.40
152;DHT22;68;48.792;9.164;2022-08-06T02:44:36;19.60;76.80
152;DHT22;68;48.792;9.164;2022-08-06T02:47:07;19.50;74.80
152;DHT22;68;48.792;9.164;2022-08-06T02:49:38;19.50;74.30
152;DHT22;68;48.792;9.164;2022-08-06T02:52:13;19.70;74.20
152;DHT22;68;48.792;9.164;2022-08-06T02:54:44;19.80;73.70
152;DHT22;68;48.792;9.164;2022-08-06T02:57:18;20.00;72.90
152;DHT22;68;48.792;9.164;2022-08-06T02:59:52;19.60;73.00
152;DHT22;68;48.792;9.164;2022-08-06T03:02:22;19.50;74.60
152;DHT22;68;48.792;9.164;2022-08-06T03:04:51;19.40;74.80
152;DHT22;68;48.792;9.164;2022-08-06T03:07:20;19.40;75.00
152;DHT22;68;48.792;9.164;2022-08-06T03:09:48;19.50;74.50
152;DHT22;68;48.792;9.164;2022-08-06T03:12:16;19.50;76.10
152;DHT22;68;48.792;9.164;2022-08-06T03:14:44;19.20;74.50
152;DHT22;68;48.792;9.164;2022-08-06T03:17:13;19.00;75.50
152;DHT22;68;48.792;9.164;2022-08-06T03:19:43;18.90;75.60
152;DHT22;68;48.792;9.164;2022-08-06T03:22:11;18.90;75.90
152;DHT22;68;48.792;9.164;2022-08-06T03:24:39;18.90;78.40
152;DHT22;68;48.792;9.164;2022-08-06T03:27:08;19.00;77.40
152;DHT22;68;48.792;9.164;2022-08-06T03:29:37;19.00;76.40
152;DHT22;68;48.792;9.164;2022-08-06T03:32:06;18.80;76.90
152;DHT22;68;48.792;9.164;2022-08-06T03:34:35;18.90;77.40
152;DHT22;68;48.792;9.164;2022-08-06T03:37:04;18.90;75.80
152;DHT22;68;48.792;9.164;2022-08-06T03:39:32;19.00;76.20
152;DHT22;68;48.792;9.164;2022-08-06T03:42:00;19.20;75.40
152;DHT22;68;48.792;9.164;2022-08-06T03:44:27;19.20;75.30
152;DHT22;68;48.792;9.164;2022-08-06T03:46:58;19.30;75.80
152;DHT22;68;48.792;9.164;2022-08-06T03:49:30;19.40;75.90
152;DHT22;68;48.792;9.164;2022-08-06T03:52:00;19.60;75.50
152;DHT22;68;48.792;9.164;2022-08-06T03:54:30;19.50;75.00
152;DHT22;68;48.792;9.164;2022-08-06T03:57:01;19.40;75.50
152;DHT22;68;48.792;9.164;2022-08-06T03:59:29;19.50;75.00
152;DHT22;68;48.792;9.164;2022-08-06T04:01:58;19.60;74.60
152;DHT22;68;48.792;9.164;2022-08-06T04:04:27;19.40;75.10
152;DHT22;68;48.792;9.164;2022-08-06T04:06:56;19.40;75.30
152;DHT22;68;48.792;9.164;2022-08-06T04:09:26;19.50;75.60
152;DHT22;68;48.792;9.164;2022-08-06T04:11:54;19.60;74.70
152;DHT22;68;48.792;9.164;2022-08-06T04:14:21;19.70;74.10
152;DHT22;68;48.792;9.164;2022-08-06T04:16:50;19.30;74.70
152;DHT22;68;48.792;9.164;2022-08-06T04:19:18;19.10;77.30
152;DHT22;68;48.792;9.164;2022-08-06T04:21:45;19.00;77.10
152;DHT22;68;48.792;9.164;2022-08-06T04:24:12;19.00;77.20
152;DHT22;68;48.792;9.164;2022-08-06T04:26:43;18.80;77.50
152;DHT22;68;48.792;9.164;2022-08-06T04:29:16;18.70;77.20
152;DHT22;68;48.792;9.164;2022-08-06T04:31:45;18.80;77.90
152;DHT22;68;48.792;9.164;2022-08-06T04:34:15;18.80;79.00
152;DHT22;68;48.792;9.164;2022-08-06T04:36:42;18.80;78.50
152;DHT22;68;48.792;9.164;2022-08-06T04:39:09;19.00;77.70
152;DHT22;68;48.792;9.164;2022-08-06T04:41:36;19.00;78.00
152;DHT22;68;48.792;9.164;2022-08-06T04:44:05;19.00;77.50
152;DHT22;68;48.792;9.164;2022-08-06T04:46:32;19.10;77.20
152;DHT22;68;48.792;9.164;2022-08-06T04:48:59;19.20;77.20
152;DHT22;68;48.792;9.164;2022-08-06T04:51:26;18.90;77.10
152;DHT22;68;48.792;9.164;2022-08-06T04:53:52;18.90;77.60
152;DHT22;68;48.792;9.164;2022-08-06T04:56:19;18.80;78.60
152;DHT22;68;48.792;9.164;2022-08-06T04:58:46;18.90;78.10
152;DHT22;68;48.792;9.164;2022-08-06T05:01:14;18.70;78.20
152;DHT22;68;48.792;9.164;2022-08-06T05:03:41;18.70;79.70
152;DHT22;68;48.792;9.164;2022-08-06T05:06:23;18.50;79.60
152;DHT22;68;48.792;9.164;2022-08-06T05:08:55;18.70;79.20
152;DHT22;68;48.792;9.164;2022-08-06T05:11:28;19.00;77.80
152;DHT22;68;48.792;9.164;2022-08-06T05:13:58;18.90;77.20
152;DHT22;68;48.792;9.164;2022-08-06T05:16:32;18.50;78.90
152;DHT22;68;48.792;9.164;2022-08-06T05:19:00;18.60;79.20
152;DHT22;68;48.792;9.164;2022-08-06T05:21:31;18.60;79.40
152;DHT22;68;48.792;9.164;2022-08-06T05:24:00;18.50;80.00
152;DHT22;68;48.792;9.164;2022-08-06T05:26:27;18.50;79.20
152;DHT22;68;48.792;9.164;2022-08-06T05:28:54;18.30;79.10
152;DHT22;68;48.792;9.164;2022-08-06T05:31:33;18.40;80.80
152;DHT22;68;48.792;9.164;2022-08-06T05:34:01;18.50;80.40
152;DHT22;68;48.792;9.164;2022-08-06T05:36:28;18.60;79.40
152;DHT22;68;48.792;9.164;2022-08-06T05:38:55;18.70;79.90
152;DHT22;68;48.792;9.164;2022-08-06T05:41:22;18.60;80.50
152;DHT22;68;48.792;9.164;2022-08-06T05:43:49;18.60;80.50
152;DHT22;68;48.792;9.164;2022-08-06T05:46:19;18.60;80.30
152;DHT22;68;48.792;9.164;2022-08-06T05:48:53;18.60;80.50
152;DHT22;68;48.792;9.164;2022-08-06T05:51:27;18.60;79.50
152;DHT22;68;48.792;9.164;2022-08-06T05:54:01;18.90;79.60
152;DHT22;68;48.792;9.164;2022-08-06T05:56:35;18.90;79.20
152;DHT22;68;48.792;9.164;2022-08-06T05:59:06;18.80;79.60
152;DHT22;68;48.792;9.164;2022-08-06T06:01:35;18.30;80.40
152;DHT22;68;48.792;9.164;2022-08-06T06:04:03;17.90;81.80
152;DHT22;68;48.792;9.164;2022-08-06T06:06:31;17.80;83.30
152;DHT22;68;48.792;9.164;2022-08-06T06:08:58;18.00;83.50
152;DHT22;68;48.792;9.164;2022-08-06T06:11:26;18.30;82.30
152;DHT22;68;48.792;9.164;2022-08-06T06:13:53;18.50;81.60
152;DHT22;68;48.792;9.164;2022-08-06T06:16:26;18.60;81.10
152;DHT22;68;48.792;9.164;2022-08-06T06:19:02;18.60;80.80
152;DHT22;68;48.792;9.164;2022-08-06T06:21:37;18.40;81.40
152;DHT22;68;48.792;9.164;2022-08-06T06:24:11;18.30;81.50
152;DHT22;68;48.792;9.164;2022-08-06T06:26:45;18.20;82.10
152;DHT22;68;48.792;9.164;2022-08-06T06:29:17;18.00;82.40
152;DHT22;68;48.792;9.164;2022-08-06T06:31:54;17.90;82.60
152;DHT22;68;48.792;9.164;2022-08-06T06:34:33;17.80;83.50
152;DHT22;68;48.792;9.164;2022-08-06T06:37:11;18.00;83.60
152;DHT22;68;48.792;9.164;2022-08-06T06:39:44;18.20;82.80
152;DHT22;68;48.792;9.164;2022-08-06T06:42:17;18.20;82.50
152;DHT22;68;48.792;9.164;2022-08-06T06:44:49;18.10;82.00
152;DHT22;68;48.792;9.164;2022-08-06T06:47:21;18.20;83.10
152;DHT22;68;48.792;9.164;2022-08-06T06:49:53;18.50;82.20
152;DHT22;68;48.792;9.164;2022-08-06T06:52:25;18.50;82.20
152;DHT22;68;48.792;9.164;2022-08-06T06:54:57;18.30;81.40
152;DHT22;68;48.792;9.164;2022-08-06T06:57:31;18.20;82.40
152;DHT22;68;48.792;9.164;2022-08-06T07:00:02;18.40;82.50
152;DHT22;68;48.792;9.164;2022-08-06T07:02:32;18.70;82.10
152;DHT22;68;48.792;9.164;2022-08-06T07:05:00;18.80;80.40
152;DHT22;68;48.792;9.164;2022-08-06T07:07:30;18.80;80.40
152;DHT22;68;48.792;9.164;2022-08-06T07:09:58;18.60;80.40
152;DHT22;68;48.792;9.164;2022-08-06T07:12:28;18.40;82.20
152;DHT22;68;48.792;9.164;2022-08-06T07:14:57;18.60;81.60
152;DHT22;68;48.792;9.164;2022-08-06T07:17:26;18.80;80.80
152;DHT22;68;48.792;9.164;2022-08-06T07:19:56;18.80;80.40
152;DHT22;68;48.792;9.164;2022-08-06T07:22:24;18.90;80.80
152;DHT22;68;48.792;9.164;2022-08-06T07:24:57;18.80;80.00
152;DHT22;68;48.792;9.164;2022-08-06T07:27:25;18.70;80.80
152;DHT22;68;48.792;9.164;2022-08-06T07:29:55;18.70;81.20
152;DHT22;68;48.792;9.164;2022-08-06T07:32:22;18.80;80.40
152;DHT22;68;48.792;9.164;2022-08-06T07:34:50;18.80;79.80
152;DHT22;68;48.792;9.164;2022-08-06T07:37:19;18.70;80.20
152;DHT22;68;48.792;9.164;2022-08-06T07:39:48;18.70;80.70
152;DHT22;68;48.792;9.164;2022-08-06T07:42:18;18.90;80.50
152;DHT22;68;48.792;9.164;2022-08-06T07:44:48;19.20;79.40
152;DHT22;68;48.792;9.164;2022-08-06T07:47:20;19.20;78.40
152;DHT22;68;48.792;9.164;2022-08-06T07:49:53;19.10;79.70
152;DHT22;68;48.792;9.164;2022-08-06T07:52:21;19.00;79.10
152;DHT22;68;48.792;9.164;2022-08-06T07:54:48;18.90;79.80
152;DHT22;68;48.792;9.164;2022-08-06T07:57:17;18.90;79.90
152;DHT22;68;48.792;9.164;2022-08-06T07:59:45;19.20;79.50
152;DHT22;68;48.792;9.164;2022-08-06T08:02:12;19.40;79.20
152;DHT22;68;48.792;9.164;2022-08-06T08:04:41;19.40;78.50
152;DHT22;68;48.792;9.164;2022-08-06T08:07:26;19.50;78.00
152;DHT22;68;48.792;9.164;2022-08-06T08:09:55;19.60;77.30
152;DHT22;68;48.792;9.164;2022-08-06T08:12:24;19.80;77.60
152;DHT22;68;48.792;9.164;2022-08-06T08:14:52;19.90;76.20
152;DHT22;68;48.792;9.164;2022-08-06T08:17:19;19.60;76.40
152;DHT22;68;48.792;9.164;2022-08-06T08:19:46;19.70;77.70
152;DHT22;68;48.792;9.164;2022-08-06T08:22:14;19.90;76.50
152;DHT22;68;48.792;9.164;2022-08-06T08:24:43;19.80;76.00
152;DHT22;68;48.792;9.164;2022-08-06T08:27:10;19.70;76.10
152;DHT22;68;48.792;9.164;2022-08-06T08:29:39;20.00;75.50
152;DHT22;68;48.792;9.164;2022-08-06T08:32:08;20.10;75.00
152;DHT22;68;48.792;9.164;2022-08-06T08:34:35;20.30;75.70
152;DHT22;68;48.792;9.164;2022-08-06T08:37:03;20.30;74.40
152;DHT22;68;48.792;9.164;2022-08-06T08:39:29;20.30;75.30
152;DHT22;68;48.792;9.164;2022-08-06T08:42:02;20.60;73.70
152;DHT22;68;48.792;9.164;2022-08-06T08:44:33;20.70;72.70
152;DHT22;68;48.792;9.164;2022-08-06T08:47:02;21.00;72.70
152;DHT22;68;48.792;9.164;2022-08-06T08:49:40;21.10;71.70
152;DHT22;68;48.792;9.164;2022-08-06T08:52:09;20.90;71.90
152;DHT22;68;48.792;9.164;2022-08-06T08:54:42;20.70;70.90
152;DHT22;68;48.792;9.164;2022-08-06T08:57:11;20.40;72.60
152;DHT22;68;48.792;9.164;2022-08-06T08:59:40;20.70;73.20
152;DHT22;68;48.792;9.164;2022-08-06T09:02:11;20.90;71.20
152;DHT22;68;48.792;9.164;2022-08-06T09:04:39;21.00;72.30
152;DHT22;68;48.792;9.164;2022-08-06T09:07:08;21.00;71.60
152;DHT22;68;48.792;9.164;2022-08-06T09:09:37;20.50;72.60
152;DHT22;68;48.792;9.164;2022-08-06T09:12:05;20.40;72.50
152;DHT22;68;48.792;9.164;2022-08-06T09:14:33;20.30;73.70
152;DHT22;68;48.792;9.164;2022-08-06T09:17:01;20.50;73.90
152;DHT22;68;48.792;9.164;2022-08-06T09:19:30;20.10;73.50
152;DHT22;68;48.792;9.164;2022-08-06T09:21:57;19.90;74.40
152;DHT22;68;48.792;9.164;2022-08-06T09:24:25;20.10;73.60
152;DHT22;68;48.792;9.164;2022-08-06T09:27:03;20.30;73.40
152;DHT22;68;48.792;9.164;2022-08-06T09:29:31;20.50;73.70
152;DHT22;68;48.792;9.164;2022-08-06T09:31:59;20.60;71.90
152;DHT22;68;48.792;9.164;2022-08-06T09:34:36;20.50;71.60
152;DHT22;68;48.792;9.164;2022-08-06T09:37:03;20.60;72.90
152;DHT22;68;48.792;9.164;2022-08-06T09:39:32;20.70;71.50
152;DHT22;68;48.792;9.164;2022-08-06T09:42:02;20.90;71.90
152;DHT22;68;48.792;9.164;2022-08-06T09:44:29;20.90;71.40
152;DHT22;68;48.792;9.164;2022-08-06T09:46:56;20.90;72.00
152;DHT22;68;48.792;9.164;2022-08-06T09:49:26;21.10;70.70
152;DHT22;68;48.792;9.164;2022-08-06T09:52:17;21.10;68.40
152;DHT22;68;48.792;9.164;2022-08-06T09:54:44;20.90;71.30
152;DHT22;68;48.792;9.164;2022-08-06T09:57:12;20.90;70.70
152;DHT22;68;48.792;9.164;2022-08-06T09:59:44;20.50;71.30
152;DHT22;68;48.792;9.164;2022-08-06T10:02:12;20.60;70.80
152;DHT22;68;48.792;9.164;2022-08-06T10:04:40;20.90;71.40
152;DHT22;68;48.792;9.164;2022-08-06T10:07:07;20.80;70.30
152;DHT22;68;48.792;9.164;2022-08-06T10:09:36;20.90;70.40
152;DHT22;68;48.792;9.164;2022-08-06T10:12:16;21.00;70.10
152;DHT22;68;48.792;9.164;2022-08-06T10:14:43;21.00;69.10
152;DHT22;68;48.792;9.164;2022-08-06T10:17:12;20.80;68.90
152;DHT22;68;48.792;9.164;2022-08-06T10:19:43;20.90;69.40
152;DHT22;68;48.792;9.164;2022-08-06T10:22:12;21.00;67.90
152;DHT22;68;48.792;9.164;2022-08-06T10:24:42;21.20;69.90
152;DHT22;68;48.792;9.164;2022-08-06T10:27:11;21.40;68.60
152;DHT22;68;48.792;9.164;2022-08-06T10:29:40;20.90;68.60
152;DHT22;68;48.792;9.164;2022-08-06T10:32:16;21.00;68.50
152;DHT22;68;48.792;9.164;2022-08-06T10:34:48;20.80;69.30
152;DHT22;68;48.792;9.164;2022-08-06T10:37:18;21.00;69.60
152;DHT22;68;48.792;9.164;2022-08-06T10:39:49;21.30;69.80
152;DHT22;68;48.792;9.164;2022-08-06T10:42:18;21.40;67.80
152;DHT22;68;48.792;9.164;2022-08-06T10:44:46;21.50;69.70
152;DHT22;68;48.792;9.164;2022-08-06T10:47:14;21.90;66.90
152;DHT22;68;48.792;9.164;2022-08-06T10:49:42;22.10;65.80
152;DHT22;68;48.792;9.164;2022-08-06T10:52:10;22.30;66.40
152;DHT22;68;48.792;9.164;2022-08-06T10:54:37;22.70;64.80
152;DHT22;68;48.792;9.164;2022-08-06T10:57:06;23.00;62.60
152;DHT22;68;48.792;9.164;2022-08-06T10:59:34;22.80;64.30
152;DHT22;68;48.792;9.164;2022-08-06T11:02:05;22.70;65.40
152;DHT22;68;48.792;9.164;2022-08-06T11:04:43;22.60;64.60
152;DHT22;68;48.792;9.164;2022-08-06T11:13:13;22.20;64.30
152;DHT22;68;48.792;9.164;2022-08-06T11:15:42;22.20;64.70
152;DHT22;68;48.792;9.164;2022-08-06T11:18:12;22.30;65.90
152;DHT22;68;48.792;9.164;2022-08-06T11:20:41;22.00;65.70
152;DHT22;68;48.792;9.164;2022-08-06T11:23:25;22.20;66.20
152;DHT22;68;48.792;9.164;2022-08-06T11:25:54;21.90;65.90
152;DHT22;68;48.792;9.164;2022-08-06T11:31:37;21.80;65.70
152;DHT22;68;48.792;9.164;2022-08-06T11:34:11;21.80;65.80
152;DHT22;68;48.792;9.164;2022-08-06T11:36:45;22.20;64.70
152;DHT22;68;48.792;9.164;2022-08-06T11:39:12;22.70;64.60
152;DHT22;68;48.792;9.164;2022-08-06T11:42:01;23.60;62.30
152;DHT22;68;48.792;9.164;2022-08-06T11:44:31;23.80;61.90
152;DHT22;68;48.792;9.164;2022-08-06T11:47:14;23.30;61.20
152;DHT22;68;48.792;9.164;2022-08-06T11:49:43;23.00;63.00
152;DHT22;68;48.792;9.164;2022-08-06T11:52:38;22.60;64.40
152;DHT22;68;48.792;9.164;2022-08-06T11:55:07;23.00;65.50
152;DHT22;68;48.792;9.164;2022-08-06T11:57:34;23.10;63.50
152;DHT22;68;48.792;9.164;2022-08-06T12:02:57;22.70;63.70
152;DHT22;68;48.792;9.164;2022-08-06T12:05:40;22.90;64.90
152;DHT22;68;48.792;9.164;2022-08-06T12:08:27;22.80;62.70
152;DHT22;68;48.792;9.164;2022-08-06T12:11:26;22.90;64.90
152;DHT22;68;48.792;9.164;2022-08-06T12:14:00;23.30;62.10
152;DHT22;68;48.792;9.164;2022-08-06T12:16:30;23.10;61.40
152;DHT22;68;48.792;9.164;2022-08-06T12:18:58;22.70;62.00
152;DHT22;68;48.792;9.164;2022-08-06T12:21:25;22.90;64.20
152;DHT22;68;48.792;9.164;2022-08-06T12:23:53;23.30;61.90
152;DHT22;68;48.792;9.164;2022-08-06T12:26:21;23.50;61.80
152;DHT22;68;48.792;9.164;2022-08-06T12:28:48;23.80;61.20
152;DHT22;68;48.792;9.164;2022-08-06T12:31:28;24.10;60.00
152;DHT22;68;48.792;9.164;2022-08-06T12:33:55;24.10;59.40
152;DHT22;68;48.792;9.164;2022-08-06T12:36:28;23.50;60.30
152;DHT22;68;48.792;9.164;2022-08-06T12:38:56;23.00;61.50
152;DHT22;68;48.792;9.164;2022-08-06T12:41:36;22.80;61.80
152;DHT22;68;48.792;9.164;2022-08-06T12:44:03;22.70;62.20
152;DHT22;68;48.792;9.164;2022-08-06T12:46:30;22.90;61.00
152;DHT22;68;48.792;9.164;2022-08-06T12:48:58;23.00;61.60
152;DHT22;68;48.792;9.164;2022-08-06T12:51:26;23.40;62.30
152;DHT22;68;48.792;9.164;2022-08-06T12:53:56;23.60;59.00
152;DHT22;68;48.792;9.164;2022-08-06T12:56:24;23.30;60.70
152;DHT22;68;48.792;9.164;2022-08-06T12:58:52;22.70;61.30
152;DHT22;68;48.792;9.164;2022-08-06T13:01:22;22.60;61.40
152;DHT22;68;48.792;9.164;2022-08-06T13:03:52;22.50;61.70
152;DHT22;68;48.792;9.164;2022-08-06T13:06:22;22.50;62.70
152;DHT22;68;48.792;9.164;2022-08-06T13:08:51;22.30;62.00
152;DHT22;68;48.792;9.164;2022-08-06T13:11:18;22.30;61.80
152;DHT22;68;48.792;9.164;2022-08-06T13:13:47;22.30;62.30
152;DHT22;68;48.792;9.164;2022-08-06T13:16:14;22.30;62.00
152;DHT22;68;48.792;9.164;2022-08-06T13:18:42;22.40;62.40
152;DHT22;68;48.792;9.164;2022-08-06T13:21:16;22.60;61.50
152;DHT22;68;48.792;9.164;2022-08-06T13:23:45;23.20;62.70
152;DHT22;68;48.792;9.164;2022-08-06T13:26:16;23.70;61.80
152;DHT22;68;48.792;9.164;2022-08-06T13:29:11;23.80;59.40
152;DHT22;68;48.792;9.164;2022-08-06T13:31:41;23.50;58.10
152;DHT22;68;48.792;9.164;2022-08-06T13:34:09;23.10;59.00
152;DHT22;68;48.792;9.164;2022-08-06T13:36:38;23.10;60.80
152;DHT22;68;48.792;9.164;2022-08-06T13:39:23;23.20;58.50
152;DHT22;68;48.792;9.164;2022-08-06T13:42:09;23.30;59.60
152;DHT22;68;48.792;9.164;2022-08-06T13:44:38;23.30;59.50
152;DHT22;68;48.792;9.164;2022-08-06T13:47:06;23.50;59.30
152;DHT22;68;48.792;9.164;2022-08-06T13:49:34;23.70;59.00
152;DHT22;68;48.792;9.164;2022-08-06T13:52:02;24.10;58.00
152;DHT22;68;48.792;9.164;2022-08-06T13:54:29;23.90;58.20
152;DHT22;68;48.792;9.164;2022-08-06T13:56:57;24.00;58.40
152;DHT22;68;48.792;9.164;2022-08-06T13:59:27;24.00;59.00
152;DHT22;68;48.792;9.164;2022-08-06T14:01:57;24.00;58.50
152;DHT22;68;48.792;9.164;2022-08-06T14:04:24;24.10;57.80
152;DHT22;68;48.792;9.164;2022-08-06T14:06:54;23.80;57.40
152;DHT22;68;48.792;9.164;2022-08-06T14:09:23;23.80;58.40
152;DHT22;68;48.792;9.164;2022-08-06T14:11:52;23.50;57.30
152;DHT22;68;48.792;9.164;2022-08-06T14:14:20;23.30;57.60
152;DHT22;68;48.792;9.164;2022-08-06T14:16:48;23.30;60.30
152;DHT22;68;48.792;9.164;2022-08-06T14:19:15;23.30;59.20
152;DHT22;68;48.792;9.164;2022-08-06T14:21:42;23.50;58.30
152;DHT22;68;48.792;9.164;2022-08-06T14:24:09;23.90;56.90
152;DHT22;68;48.792;9.164;2022-08-06T14:26:36;24.20;58.10
152;DHT22;68;48.792;9.164;2022-08-06T14:29:03;24.40;57.00
152;DHT22;68;48.792;9.164;2022-08-06T14:31:30;24.60;57.50
152;DHT22;68;48.792;9.164;2022-08-06T14:33:59;24.80;55.00
152;DHT22;68;48.792;9.164;2022-08-06T14:36:27;24.60;54.40
152;DHT22;68;48.792;9.164;2022-08-06T14:38:54;24.60;55.20
152;DHT22;68;48.792;9.164;2022-08-06T14:41:21;24.30;53.80
152;DHT22;68;48.792;9.164;2022-08-06T14:44:05;24.10;54.20
152;DHT22;68;48.792;9.164;2022-08-06T14:46:49;24.00;54.80
152;DHT22;68;48.792;9.164;2022-08-06T14:49:17;24.20;55.80
152;DHT22;68;48.792;9.164;2022-08-06T14:51:44;24.20;54.20
152;DHT22;68;48.792;9.164;2022-08-06T14:54:11;24.20;54.40
152;DHT22;68;48.792;9.164;2022-08-06T14:56:39;24.10;55.80
152;DHT22;68;48.792;9.164;2022-08-06T14:59:06;24.00;54.30
152;DHT22;68;48.792;9.164;2022-08-06T15:01:32;24.00;54.70
152;DHT22;68;48.792;9.164;2022-08-06T15:03:59;24.00;55.10
152;DHT22;68;48.792;9.164;2022-08-06T15:06:27;24.00;56.30
152;DHT22;68;48.792;9.164;2022-08-06T15:08:54;23.90;54.70
152;DHT22;68;48.792;9.164;2022-08-06T15:11:21;23.90;54.70
152;DHT22;68;48.792;9.164;2022-08-06T15:13:48;24.10;54.90
152;DHT22;68;48.792;9.164;2022-08-06T15:16:15;24.00;54.90
152;DHT22;68;48.792;9.164;2022-08-06T15:18:41;23.80;54.20
152;DHT22;68;48.792;9.164;2022-08-06T15:21:09;23.90;55.50
152;DHT22;68;48.792;9.164;2022-08-06T15:23:37;24.00;54.20
152;DHT22;68;48.792;9.164;2022-08-06T15:26:04;24.00;54.00
152;DHT22;68;48.792;9.164;2022-08-06T15:28:31;24.00;54.10
152;DHT22;68;48.792;9.164;2022-08-06T15:30:58;24.20;53.80
152;DHT22;68;48.792;9.164;2022-08-06T15:33:26;24.10;53.30
152;DHT22;68;48.792;9.164;2022-08-06T15:35:53;24.20;53.10
152;DHT22;68;48.792;9.164;2022-08-06T15:38:20;24.10;52.50
152;DHT22;68;48.792;9.164;2022-08-06T15:40:48;24.10;53.40
152;DHT22;68;48.792;9.164;2022-08-06T15:43:15;24.00;52.30
152;DHT22;68;48.792;9.164;2022-08-06T15:45:42;24.00;52.20
152;DHT22;68;48.792;9.164;2022-08-06T15:48:09;24.10;53.00
152;DHT22;68;48.792;9.164;2022-08-06T15:50:36;24.20;52.60
152;DHT22;68;48.792;9.164;2022-08-06T15:53:02;24.10;51.70
152;DHT22;68;48.792;9.164;2022-08-06T15:55:30;24.30;52.00
152;DHT22;68;48.792;9.164;2022-08-06T15:57:59;24.50;51.30
152;DHT22;68;48.792;9.164;2022-08-06T16:00:25;24.40;52.20
152;DHT22;68;48.792;9.164;2022-08-06T16:02:52;24.40;51.60
152;DHT22;68;48.792;9.164;2022-08-06T16:05:19;24.20;52.10
152;DHT22;68;48.792;9.164;2022-08-06T16:07:47;24.00;52.40
152;DHT22;68;48.792;9.164;2022-08-06T16:10:14;24.00;51.40
152;DHT22;68;48.792;9.164;2022-08-06T16:12:42;24.00;51.50
152;DHT22;68;48.792;9.164;2022-08-06T16:15:10;24.20;52.00
152;DHT22;68;48.792;9.164;2022-08-06T16:17:37;24.30;52.50
152;DHT22;68;48.792;9.164;2022-08-06T16:20:04;24.20;50.10
152;DHT22;68;48.792;9.164;2022-08-06T16:22:31;24.30;50.50
152;DHT22;68;48.792;9.164;2022-08-06T16:24:58;24.40;50.30
152;DHT22;68;48.792;9.164;2022-08-06T16:27:25;24.40;50.10
152;DHT22;68;48.792;9.164;2022-08-06T16:29:52;24.20;49.70
152;DHT22;68;48.792;9.164;2022-08-06T16:32:20;24.10;50.10
152;DHT22;68;48.792;9.164;2022-08-06T16:34:47;24.00;49.60
152;DHT22;68;48.792;9.164;2022-08-06T16:37:14;24.20;49.80
152;DHT22;68;48.792;9.164;2022-08-06T16:39:41;24.40;49.50
152;DHT22;68;48.792;9.164;2022-08-06T16:42:08;24.20;49.40
152;DHT22;68;48.792;9.164;2022-08-06T16:44:36;24.20;49.40
152;DHT22;68;48.792;9.164;2022-08-06T16:47:04;24.00;50.10
152;DHT22;68;48.792;9.164;2022-08-06T16:49:32;24.00;49.70
152;DHT22;68;48.792;9.164;2022-08-06T16:51:59;24.10;50.00
152;DHT22;68;48.792;9.164;2022-08-06T16:54:26;24.10;48.60
152;DHT22;68;48.792;9.164;2022-08-06T16:56:52;24.00;50.20
152;DHT22;68;48.792;9.164;2022-08-06T16:59:19;24.20;48.90
152;DHT22;68;48.792;9.164;2022-08-06T17:01:46;24.30;48.50
152;DHT22;68;48.792;9.164;2022-08-06T17:04:35;24.10;48.90
152;DHT22;68;48.792;9.164;2022-08-06T17:07:02;24.20;49.20
152;DHT22;68;48.792;9.164;2022-08-06T17:09:28;24.30;49.50
152;DHT22;68;48.792;9.164;2022-08-06T17:11:55;24.40;49.10
152;DHT22;68;48.792;9.164;2022-08-06T17:14:24;24.40;48.40
152;DHT22;68;48.792;9.164;2022-08-06T17:16:52;24.40;48.70
152;DHT22;68;48.792;9.164;2022-08-06T17:19:18;24.50;49.30
152;DHT22;68;48.792;9.164;2022-08-06T17:21:47;24.50;49.10